sensor_id;sensor_type;location;lat;lon;timestamp;pressure;altitude;pressure_sealevel;temperature;humidity
596;BME280;19946;49.306;11.350;2023-12-20T00:02:37;96236.91;;;2.55;100.00
596;BME280;19946;49.306;11.350;2023-12-20T00:05:50;96251.44;;;2.54;100.00
596;BME280;19946;49.306;11.350;2023-12-20T00:09:22;96210.69;;;2.37;100.00
596;BME280;19946;49.306;11.350;2023-12-20T00:13:27;96176.00;;;2.17;100.00
596;BME280;19946;49.306;11.350;2023-12-20T00:16:29;96132.69;;;2.00;100.00
596;BME280;19946;49.306;11.350;2023-12-20T00:19:42;96235.84;;;2.59;100.00
596;BME280;19946;49.306;11.350;2023-12-20T00:22:48;96203.63;;;2.41;100.00
596;BME280;19946;49.306;11.350;2023-12-20T00:26:12;96206.47;;;2.36;100.00
596;BME280;19946;49.306;11.350;2023-12-20T00:29:25;96135.63;;;2.08;100.00
596;BME280;19946;49.306;11.350;2023-12-20T00:32:59;96208.56;;;2.60;100.00
596;BME280;19946;49.306;11.350;2023-12-20T00:36:11;96184.44;;;2.64;100.00
596;BME280;19946;49.306;11.350;2023-12-20T00:39:13;96160.56;;;2.35;100.00
596;BME280;19946;49.306;11.350;2023-12-20T00:42:47;96168.81;;;2.54;100.00
596;BME280;19946;49.306;11.350;2023-12-20T00:45:48;96196.97;;;2.82;100.00
596;BME280;19946;49.306;11.350;2023-12-20T00:48:48;96117.72;;;2.24;100.00
596;BME280;19946;49.306;11.350;2023-12-20T00:51:55;96198.16;;;2.77;100.00
596;BME280;19946;49.306;11.350;2023-12-20T00:55:16;96144.25;;;2.51;100.00
596;BME280;19946;49.306;11.350;2023-12-20T00:58:16;96202.81;;;2.70;100.00
596;BME280;19946;49.306;11.350;2023-12-20T01:01:17;96081.16;;;1.94;100.00
596;BME280;19946;49.306;11.350;2023-12-20T01:04:30;96123.09;;;2.19;100.00
596;BME280;19946;49.306;11.350;2023-12-20T01:07:39;96191.28;;;2.63;100.00
596;BME280;19946;49.306;11.350;2023-12-20T01:26:18;96192.16;;;2.78;100.00
596;BME280;19946;49.306;11.350;2023-12-20T01:30:22;96185.72;;;2.71;100.00
596;BME280;19946;49.306;11.350;2023-12-20T01:38:32;96094.75;;;2.24;100.00
596;BME280;19946;49.306;11.350;2023-12-20T01:41:32;96102.72;;;2.48;100.00
596;BME280;19946;49.306;11.350;2023-12-20T01:44:32;96161.56;;;2.76;100.00
596;BME280;19946;49.306;11.350;2023-12-20T01:47:33;96135.13;;;2.62;100.00
596;BME280;19946;49.306;11.350;2023-12-20T01:50:36;96107.91;;;2.61;100.00
596;BME280;19946;49.306;11.350;2023-12-20T01:57:44;96092.38;;;2.35;100.00
596;BME280;19946;49.306;11.350;2023-12-20T02:00:54;96163.94;;;2.79;100.00
596;BME280;19946;49.306;11.350;2023-12-20T02:16:33;96150.22;;;2.94;100.00
596;BME280;19946;49.306;11.350;2023-12-20T02:24:00;96143.22;;;2.98;100.00
596;BME280;19946;49.306;11.350;2023-12-20T02:27:01;96074.81;;;2.59;100.00
596;BME280;19946;49.306;11.350;2023-12-20T02:30:11;96131.78;;;2.89;100.00
596;BME280;19946;49.306;11.350;2023-12-20T02:36:47;96111.16;;;2.78;100.00
596;BME280;19946;49.306;11.350;2023-12-20T02:39:48;96075.63;;;2.60;100.00
596;BME280;19946;49.306;11.350;2023-12-20T02:42:49;96079.47;;;2.67;100.00
596;BME280;19946;49.306;11.350;2023-12-20T02:45:49;96115.81;;;2.86;100.00
596;BME280;19946;49.306;11.350;2023-12-20T02:48:50;96029.59;;;2.45;100.00
596;BME280;19946;49.306;11.350;2023-12-20T02:51:50;96055.28;;;2.58;100.00
596;BME280;19946;49.306;11.350;2023-12-20T02:54:50;96103.94;;;2.85;100.00
596;BME280;19946;49.306;11.350;2023-12-20T02:57:51;96131.25;;;3.13;100.00
596;BME280;19946;49.306;11.350;2023-12-20T03:00:51;96092.97;;;2.83;100.00
596;BME280;19946;49.306;11.350;2023-12-20T03:03:52;96123.00;;;3.08;100.00
596;BME280;19946;49.306;11.350;2023-12-20T03:06:52;96086.94;;;2.84;100.00
596;BME280;19946;49.306;11.350;2023-12-20T03:09:52;96117.91;;;2.93;100.00
596;BME280;19946;49.306;11.350;2023-12-20T03:12:53;96010.97;;;2.29;100.00
596;BME280;19946;49.306;11.350;2023-12-20T03:15:53;96055.63;;;2.52;100.00
596;BME280;19946;49.306;11.350;2023-12-20T03:18:53;96085.94;;;2.72;100.00
596;BME280;19946;49.306;11.350;2023-12-20T03:21:54;96144.50;;;2.91;100.00
596;BME280;19946;49.306;11.350;2023-12-20T03:24:55;96138.81;;;2.86;100.00
596;BME280;19946;49.306;11.350;2023-12-20T03:28:29;96134.69;;;2.83;100.00
596;BME280;19946;49.306;11.350;2023-12-20T03:31:40;96116.72;;;2.85;100.00
596;BME280;19946;49.306;11.350;2023-12-20T03:34:41;96092.31;;;2.65;100.00
596;BME280;19946;49.306;11.350;2023-12-20T03:37:41;96129.84;;;2.93;100.00
596;BME280;19946;49.306;11.350;2023-12-20T03:40:41;96046.94;;;2.26;100.00
596;BME280;19946;49.306;11.350;2023-12-20T03:43:42;96121.38;;;2.78;100.00
596;BME280;19946;49.306;11.350;2023-12-20T03:46:42;96149.03;;;2.86;100.00
596;BME280;19946;49.306;11.350;2023-12-20T03:49:43;96129.03;;;2.64;100.00
596;BME280;19946;49.306;11.350;2023-12-20T03:52:43;96108.22;;;2.56;100.00
596;BME280;19946;49.306;11.350;2023-12-20T03:55:43;96052.03;;;2.26;100.00
596;BME280;19946;49.306;11.350;2023-12-20T03:58:44;96086.19;;;2.53;100.00
596;BME280;19946;49.306;11.350;2023-12-20T04:01:44;96142.94;;;2.88;100.00
596;BME280;19946;49.306;11.350;2023-12-20T04:04:44;96108.22;;;2.56;100.00
596;BME280;19946;49.306;11.350;2023-12-20T04:07:45;96104.09;;;2.53;100.00
596;BME280;19946;49.306;11.350;2023-12-20T04:10:45;96067.38;;;2.26;100.00
596;BME280;19946;49.306;11.350;2023-12-20T04:13:45;96141.75;;;2.80;100.00
596;BME280;19946;49.306;11.350;2023-12-20T04:16:46;96161.91;;;2.84;100.00
596;BME280;19946;49.306;11.350;2023-12-20T04:19:46;96157.91;;;2.80;100.00
596;BME280;19946;49.306;11.350;2023-12-20T04:22:46;96090.78;;;2.48;100.00
596;BME280;19946;49.306;11.350;2023-12-20T04:25:47;96131.59;;;2.64;100.00
596;BME280;19946;49.306;11.350;2023-12-20T04:28:47;96146.56;;;2.56;100.00
596;BME280;19946;49.306;11.350;2023-12-20T04:31:48;96060.66;;;2.09;100.00
596;BME280;19946;49.306;11.350;2023-12-20T04:34:48;96134.84;;;2.52;100.00
596;BME280;19946;49.306;11.350;2023-12-20T04:37:49;96152.16;;;2.77;100.00
596;BME280;19946;49.306;11.350;2023-12-20T04:40:49;96111.31;;;2.47;100.00
596;BME280;19946;49.306;11.350;2023-12-20T04:43:50;96151.88;;;2.67;100.00
596;BME280;19946;49.306;11.350;2023-12-20T04:46:50;96081.97;;;2.24;100.00
596;BME280;19946;49.306;11.350;2023-12-20T04:49:52;96065.44;;;2.30;100.00
596;BME280;19946;49.306;11.350;2023-12-20T04:52:52;96100.88;;;2.50;100.00
596;BME280;19946;49.306;11.350;2023-12-20T04:55:53;96118.88;;;2.63;100.00
596;BME280;19946;49.306;11.350;2023-12-20T04:58:53;96156.06;;;2.82;100.00
596;BME280;19946;49.306;11.350;2023-12-20T05:01:54;96114.47;;;2.50;100.00
596;BME280;19946;49.306;11.350;2023-12-20T05:04:56;96052.84;;;2.12;100.00
596;BME280;19946;49.306;11.350;2023-12-20T05:07:56;96072.75;;;2.22;100.00
596;BME280;19946;49.306;11.350;2023-12-20T05:10:56;96160.47;;;2.80;100.00
596;BME280;19946;49.306;11.350;2023-12-20T05:13:57;96056.94;;;2.15;100.00
596;BME280;19946;49.306;11.350;2023-12-20T05:16:57;96143.09;;;2.71;100.00
596;BME280;19946;49.306;11.350;2023-12-20T05:19:57;96125.44;;;2.52;100.00
596;BME280;19946;49.306;11.350;2023-12-20T05:22:58;96163.34;;;2.60;100.00
596;BME280;19946;49.306;11.350;2023-12-20T05:25:58;96142.13;;;2.44;100.00
596;BME280;19946;49.306;11.350;2023-12-20T05:28:59;96173.41;;;2.63;100.00
596;BME280;19946;49.306;11.350;2023-12-20T05:31:59;96203.94;;;2.94;100.00
596;BME280;19946;49.306;11.350;2023-12-20T05:35:00;96154.38;;;2.53;100.00
596;BME280;19946;49.306;11.350;2023-12-20T05:38:20;96191.03;;;2.68;100.00
596;BME280;19946;49.306;11.350;2023-12-20T05:41:25;96200.09;;;2.87;100.00
596;BME280;19946;49.306;11.350;2023-12-20T05:44:25;96146.28;;;2.31;100.00
596;BME280;19946;49.306;11.350;2023-12-20T05:51:11;96185.00;;;2.39;100.00
596;BME280;19946;49.306;11.350;2023-12-20T05:54:25;96188.59;;;2.36;100.00
596;BME280;19946;49.306;11.350;2023-12-20T05:57:25;96202.81;;;2.40;100.00
596;BME280;19946;49.306;11.350;2023-12-20T06:00:26;96150.41;;;2.03;100.00
596;BME280;19946;49.306;11.350;2023-12-20T06:03:26;96225.56;;;2.45;100.00
596;BME280;19946;49.306;11.350;2023-12-20T06:06:26;96159.97;;;2.00;100.00
596;BME280;19946;49.306;11.350;2023-12-20T06:09:27;96186.84;;;2.37;100.00
596;BME280;19946;49.306;11.350;2023-12-20T06:12:27;96243.63;;;2.72;100.00
596;BME280;19946;49.306;11.350;2023-12-20T06:15:38;96215.44;;;2.43;100.00
596;BME280;19946;49.306;11.350;2023-12-20T06:22:42;96216.47;;;2.55;100.00
596;BME280;19946;49.306;11.350;2023-12-20T06:29:40;96194.03;;;2.30;100.00
596;BME280;19946;49.306;11.350;2023-12-20T06:40:40;96224.16;;;2.39;100.00
596;BME280;19946;49.306;11.350;2023-12-20T06:43:41;96198.75;;;2.22;100.00
596;BME280;19946;49.306;11.350;2023-12-20T06:46:41;96249.94;;;2.50;100.00
596;BME280;19946;49.306;11.350;2023-12-20T06:49:41;96241.72;;;2.45;100.00
596;BME280;19946;49.306;11.350;2023-12-20T06:52:42;96227.53;;;2.40;100.00
596;BME280;19946;49.306;11.350;2023-12-20T07:03:49;96159.00;;;1.87;100.00
596;BME280;19946;49.306;11.350;2023-12-20T07:10:55;96164.84;;;1.89;100.00
596;BME280;19946;49.306;11.350;2023-12-20T07:14:18;96191.13;;;1.91;100.00
596;BME280;19946;49.306;11.350;2023-12-20T07:17:18;96264.16;;;2.40;100.00
596;BME280;19946;49.306;11.350;2023-12-20T07:20:19;96163.28;;;1.55;100.00
596;BME280;19946;49.306;11.350;2023-12-20T07:23:19;96189.66;;;1.71;100.00
596;BME280;19946;49.306;11.350;2023-12-20T07:26:20;96240.44;;;2.07;100.00
596;BME280;19946;49.306;11.350;2023-12-20T07:29:21;96312.94;;;2.67;100.00
596;BME280;19946;49.306;11.350;2023-12-20T07:32:21;96286.91;;;2.45;100.00
596;BME280;19946;49.306;11.350;2023-12-20T07:35:23;96316.56;;;2.63;100.00
596;BME280;19946;49.306;11.350;2023-12-20T07:38:23;96302.78;;;2.50;100.00
596;BME280;19946;49.306;11.350;2023-12-20T07:41:24;96314.00;;;2.63;100.00
596;BME280;19946;49.306;11.350;2023-12-20T07:44:24;96325.28;;;2.75;100.00
596;BME280;19946;49.306;11.350;2023-12-20T07:47:24;96277.34;;;2.48;100.00
596;BME280;19946;49.306;11.350;2023-12-20T07:50:25;96260.44;;;2.30;100.00
596;BME280;19946;49.306;11.350;2023-12-20T07:53:26;96259.31;;;2.36;100.00
596;BME280;19946;49.306;11.350;2023-12-20T07:56:27;96272.63;;;2.41;100.00
596;BME280;19946;49.306;11.350;2023-12-20T07:59:28;96339.69;;;2.91;100.00
596;BME280;19946;49.306;11.350;2023-12-20T08:02:28;96296.75;;;2.67;100.00
596;BME280;19946;49.306;11.350;2023-12-20T08:05:28;96256.53;;;2.54;100.00
596;BME280;19946;49.306;11.350;2023-12-20T08:08:28;96236.63;;;2.30;100.00
596;BME280;19946;49.306;11.350;2023-12-20T08:11:29;96285.81;;;2.49;100.00
596;BME280;19946;49.306;11.350;2023-12-20T08:14:30;96275.50;;;2.50;100.00
596;BME280;19946;49.306;11.350;2023-12-20T08:17:30;96302.19;;;2.76;100.00
596;BME280;19946;49.306;11.350;2023-12-20T08:20:30;96271.13;;;2.52;100.00
596;BME280;19946;49.306;11.350;2023-12-20T08:23:31;96327.72;;;2.92;100.00
596;BME280;19946;49.306;11.350;2023-12-20T08:26:33;96308.59;;;2.83;100.00
596;BME280;19946;49.306;11.350;2023-12-20T08:29:33;96336.84;;;3.12;100.00
596;BME280;19946;49.306;11.350;2023-12-20T08:32:33;96332.78;;;3.08;100.00
596;BME280;19946;49.306;11.350;2023-12-20T08:35:34;96265.34;;;2.65;100.00
596;BME280;19946;49.306;11.350;2023-12-20T08:38:36;96350.53;;;3.11;100.00
596;BME280;19946;49.306;11.350;2023-12-20T08:41:36;96315.25;;;3.02;100.00
596;BME280;19946;49.306;11.350;2023-12-20T08:44:37;96258.72;;;2.76;100.00
596;BME280;19946;49.306;11.350;2023-12-20T08:47:37;96352.06;;;3.43;100.00
596;BME280;19946;49.306;11.350;2023-12-20T08:50:38;96326.63;;;3.26;100.00
596;BME280;19946;49.306;11.350;2023-12-20T08:53:39;96261.53;;;3.02;100.00
596;BME280;19946;49.306;11.350;2023-12-20T08:56:39;96225.69;;;2.87;100.00
596;BME280;19946;49.306;11.350;2023-12-20T08:59:39;96341.66;;;3.60;100.00
596;BME280;19946;49.306;11.350;2023-12-20T09:02:41;96330.16;;;3.53;100.00
596;BME280;19946;49.306;11.350;2023-12-20T09:05:41;96318.59;;;3.32;100.00
596;BME280;19946;49.306;11.350;2023-12-20T09:08:41;96329.88;;;3.14;100.00
596;BME280;19946;49.306;11.350;2023-12-20T09:11:42;96358.97;;;3.57;100.00
596;BME280;19946;49.306;11.350;2023-12-20T09:14:42;96348.25;;;3.64;100.00
596;BME280;19946;49.306;11.350;2023-12-20T09:17:42;96296.34;;;3.18;100.00
596;BME280;19946;49.306;11.350;2023-12-20T09:20:43;96302.91;;;3.52;100.00
596;BME280;19946;49.306;11.350;2023-12-20T09:23:44;96322.47;;;3.67;100.00
596;BME280;19946;49.306;11.350;2023-12-20T09:26:45;96372.63;;;4.00;100.00
596;BME280;19946;49.306;11.350;2023-12-20T09:29:45;96351.47;;;3.82;100.00
596;BME280;19946;49.306;11.350;2023-12-20T09:32:45;96347.16;;;3.68;100.00
596;BME280;19946;49.306;11.350;2023-12-20T09:35:46;96326.47;;;3.57;100.00
596;BME280;19946;49.306;11.350;2023-12-20T09:38:46;96326.69;;;3.54;100.00
596;BME280;19946;49.306;11.350;2023-12-20T09:41:56;96343.41;;;3.74;100.00
596;BME280;19946;49.306;11.350;2023-12-20T09:45:01;96310.91;;;3.32;100.00
596;BME280;19946;49.306;11.350;2023-12-20T09:48:03;96290.72;;;3.42;100.00
596;BME280;19946;49.306;11.350;2023-12-20T09:51:04;96353.91;;;4.12;100.00
596;BME280;19946;49.306;11.350;2023-12-20T09:54:05;96333.81;;;4.06;100.00
596;BME280;19946;49.306;11.350;2023-12-20T09:57:05;96265.44;;;4.07;100.00
596;BME280;19946;49.306;11.350;2023-12-20T10:00:06;96286.25;;;3.88;100.00
596;BME280;19946;49.306;11.350;2023-12-20T10:03:13;96345.63;;;4.76;100.00
596;BME280;19946;49.306;11.350;2023-12-20T10:06:14;96296.13;;;4.35;100.00
596;BME280;19946;49.306;11.350;2023-12-20T10:09:15;96336.53;;;4.58;100.00
596;BME280;19946;49.306;11.350;2023-12-20T10:12:15;96320.34;;;4.85;100.00
596;BME280;19946;49.306;11.350;2023-12-20T10:15:15;96310.75;;;4.74;100.00
596;BME280;19946;49.306;11.350;2023-12-20T10:18:16;96361.13;;;5.02;100.00
596;BME280;19946;49.306;11.350;2023-12-20T10:21:17;96307.59;;;4.83;100.00
596;BME280;19946;49.306;11.350;2023-12-20T10:24:18;96303.25;;;4.71;100.00
596;BME280;19946;49.306;11.350;2023-12-20T10:27:18;96296.97;;;5.02;100.00
596;BME280;19946;49.306;11.350;2023-12-20T10:30:19;96297.56;;;4.93;100.00
596;BME280;19946;49.306;11.350;2023-12-20T10:33:27;96328.72;;;5.13;100.00
596;BME280;19946;49.306;11.350;2023-12-20T10:36:32;96337.44;;;5.11;100.00
596;BME280;19946;49.306;11.350;2023-12-20T10:39:33;96258.50;;;4.35;100.00
596;BME280;19946;49.306;11.350;2023-12-20T10:42:33;96279.94;;;4.61;100.00
596;BME280;19946;49.306;11.350;2023-12-20T10:45:36;96339.25;;;4.96;100.00
596;BME280;19946;49.306;11.350;2023-12-20T10:48:37;96256.03;;;4.07;100.00
596;BME280;19946;49.306;11.350;2023-12-20T10:51:39;96295.91;;;4.11;100.00
596;BME280;19946;49.306;11.350;2023-12-20T10:54:40;96307.03;;;4.24;100.00
596;BME280;19946;49.306;11.350;2023-12-20T10:57:41;96307.25;;;4.21;100.00
596;BME280;19946;49.306;11.350;2023-12-20T11:00:43;96293.63;;;4.21;100.00
596;BME280;19946;49.306;11.350;2023-12-20T11:03:50;96332.88;;;4.21;100.00
596;BME280;19946;49.306;11.350;2023-12-20T11:07:07;96309.81;;;4.21;100.00
596;BME280;19946;49.306;11.350;2023-12-20T11:10:38;96331.19;;;4.34;100.00
596;BME280;19946;49.306;11.350;2023-12-20T11:14:00;96323.47;;;4.22;100.00
596;BME280;19946;49.306;11.350;2023-12-20T11:17:15;96318.53;;;3.90;100.00
596;BME280;19946;49.306;11.350;2023-12-20T11:20:23;96222.91;;;3.20;100.00
596;BME280;19946;49.306;11.350;2023-12-20T11:23:48;96238.25;;;3.49;100.00
596;BME280;19946;49.306;11.350;2023-12-20T11:26:49;96282.66;;;3.90;100.00
596;BME280;19946;49.306;11.350;2023-12-20T11:29:56;96200.13;;;3.02;100.00
596;BME280;19946;49.306;11.350;2023-12-20T11:32:57;96264.03;;;3.32;100.00
596;BME280;19946;49.306;11.350;2023-12-20T11:35:58;96270.88;;;3.74;100.00
596;BME280;19946;49.306;11.350;2023-12-20T11:38:59;96291.72;;;3.96;100.00
596;BME280;19946;49.306;11.350;2023-12-20T11:42:04;96258.00;;;3.75;100.00
596;BME280;19946;49.306;11.350;2023-12-20T11:45:08;96219.06;;;3.42;100.00
596;BME280;19946;49.306;11.350;2023-12-20T11:48:10;96237.97;;;3.67;100.00
596;BME280;19946;49.306;11.350;2023-12-20T11:51:11;96253.13;;;3.71;100.00
596;BME280;19946;49.306;11.350;2023-12-20T11:54:15;96273.28;;;3.62;100.00
596;BME280;19946;49.306;11.350;2023-12-20T11:57:15;96253.34;;;3.53;100.00
596;BME280;19946;49.306;11.350;2023-12-20T12:00:37;96281.41;;;3.55;100.00
596;BME280;19946;49.306;11.350;2023-12-20T12:03:40;96284.16;;;3.52;100.00
596;BME280;19946;49.306;11.350;2023-12-20T12:06:43;96271.09;;;3.56;100.00
596;BME280;19946;49.306;11.350;2023-12-20T12:09:45;96288.19;;;3.56;100.00
596;BME280;19946;49.306;11.350;2023-12-20T12:12:46;96226.91;;;3.10;100.00
596;BME280;19946;49.306;11.350;2023-12-20T12:15:48;96252.31;;;3.27;100.00
596;BME280;19946;49.306;11.350;2023-12-20T12:18:56;96258.09;;;3.45;100.00
596;BME280;19946;49.306;11.350;2023-12-20T12:22:18;96260.00;;;3.27;100.00
596;BME280;19946;49.306;11.350;2023-12-20T12:25:28;96242.63;;;3.18;100.00
596;BME280;19946;49.306;11.350;2023-12-20T12:28:30;96276.00;;;3.31;100.00
596;BME280;19946;49.306;11.350;2023-12-20T12:32:06;96229.81;;;3.04;100.00
596;BME280;19946;49.306;11.350;2023-12-20T12:35:11;96251.50;;;3.27;100.00
596;BME280;19946;49.306;11.350;2023-12-20T12:38:11;96270.41;;;3.39;100.00
596;BME280;19946;49.306;11.350;2023-12-20T12:41:13;96233.31;;;3.46;100.00
596;BME280;19946;49.306;11.350;2023-12-20T12:44:13;96171.09;;;3.03;100.00
596;BME280;19946;49.306;11.350;2023-12-20T12:47:22;96249.22;;;3.37;100.00
596;BME280;19946;49.306;11.350;2023-12-20T12:50:35;96279.03;;;3.52;100.00
596;BME280;19946;49.306;11.350;2023-12-20T12:53:36;96281.59;;;3.52;100.00
596;BME280;19946;49.306;11.350;2023-12-20T13:01:13;96265.03;;;3.29;100.00
596;BME280;19946;49.306;11.350;2023-12-20T13:04:14;96249.31;;;3.35;100.00
596;BME280;19946;49.306;11.350;2023-12-20T13:07:14;96226.09;;;3.24;100.00
596;BME280;19946;49.306;11.350;2023-12-20T13:10:17;96219.19;;;2.96;100.00
596;BME280;19946;49.306;11.350;2023-12-20T13:13:37;96255.34;;;3.20;100.00
596;BME280;19946;49.306;11.350;2023-12-20T13:16:38;96251.69;;;3.24;100.00
596;BME280;19946;49.306;11.350;2023-12-20T13:19:38;96283.88;;;3.56;100.00
596;BME280;19946;49.306;11.350;2023-12-20T13:22:39;96189.41;;;2.95;100.00
596;BME280;19946;49.306;11.350;2023-12-20T13:33:02;96230.63;;;2.90;100.00
596;BME280;19946;49.306;11.350;2023-12-20T13:36:04;96268.13;;;3.20;100.00
596;BME280;19946;49.306;11.350;2023-12-20T13:39:04;96258.97;;;3.16;100.00
596;BME280;19946;49.306;11.350;2023-12-20T13:42:05;96264.63;;;3.07;100.00
596;BME280;19946;49.306;11.350;2023-12-20T13:45:14;96235.00;;;2.88;100.00
596;BME280;19946;49.306;11.350;2023-12-20T13:48:14;96273.78;;;3.11;100.00
596;BME280;19946;49.306;11.350;2023-12-20T13:51:15;96287.47;;;3.10;100.00
596;BME280;19946;49.306;11.350;2023-12-20T13:54:15;96237.81;;;2.84;100.00
596;BME280;19946;49.306;11.350;2023-12-20T13:57:16;96261.97;;;3.08;100.00
596;BME280;19946;49.306;11.350;2023-12-20T14:00:22;96293.06;;;3.16;100.00
596;BME280;19946;49.306;11.350;2023-12-20T14:20:55;96271.56;;;3.05;100.00
596;BME280;19946;49.306;11.350;2023-12-20T14:25:07;96239.28;;;2.88;100.00
596;BME280;19946;49.306;11.350;2023-12-20T14:29:10;96226.59;;;2.86;100.00
596;BME280;19946;49.306;11.350;2023-12-20T14:32:30;96147.13;;;2.31;100.00
596;BME280;19946;49.306;11.350;2023-12-20T14:36:15;96202.41;;;2.62;100.00
596;BME280;19946;49.306;11.350;2023-12-20T14:39:17;96271.03;;;3.14;100.00
596;BME280;19946;49.306;11.350;2023-12-20T14:42:18;96161.75;;;2.43;100.00
596;BME280;19946;49.306;11.350;2023-12-20T14:45:29;96235.16;;;2.85;100.00
596;BME280;19946;49.306;11.350;2023-12-20T14:48:39;96210.31;;;2.73;100.00
596;BME280;19946;49.306;11.350;2023-12-20T14:52:05;96130.88;;;2.02;100.00
596;BME280;19946;49.306;11.350;2023-12-20T14:55:07;96247.88;;;2.87;100.00
596;BME280;19946;49.306;11.350;2023-12-20T15:10:22;96235.16;;;2.85;100.00
596;BME280;19946;49.306;11.350;2023-12-20T15:13:24;96200.44;;;2.67;100.00
596;BME280;19946;49.306;11.350;2023-12-20T15:20:47;96232.69;;;2.84;100.00
596;BME280;19946;49.306;11.350;2023-12-20T15:23:48;96208.13;;;2.51;100.00
596;BME280;19946;49.306;11.350;2023-12-20T16:55:41;96202.91;;;2.39;100.00
596;BME280;19946;49.306;11.350;2023-12-20T17:31:06;96248.88;;;2.84;100.00
596;BME280;19946;49.306;11.350;2023-12-20T17:34:07;96187.06;;;2.48;100.00
596;BME280;19946;49.306;11.350;2023-12-20T17:55:03;96253.81;;;2.87;100.00
596;BME280;19946;49.306;11.350;2023-12-20T20:41:35;96200.53;;;2.66;100.00
596;BME280;19946;49.306;11.350;2023-12-20T20:49:17;96129.72;;;2.38;100.00
596;BME280;19946;49.306;11.350;2023-12-20T21:42:29;96013.41;;;2.02;100.00
596;BME280;19946;49.306;11.350;2023-12-20T22:25:17;96019.84;;;2.66;100.00
596;BME280;19946;49.306;11.350;2023-12-20T22:56:23;95930.03;;;2.44;100.00
596;BME280;19946;49.306;11.350;2023-12-20T23:51:44;95916.63;;;3.35;100.00
